Time;durP1;ratioP1;P1;durP2;ratioP2;P2;SDS_P1;SDS_P2;PMS_P1;PMS_P2;Temp;Humidity;BMP_temperature;BMP_pressure;BME280_temperature;BME280_humidity;BME280_pressure;Samples;Min_cycle;Max_cycle;Signal;HPM_P1;HPM_P2
2023/06/06 00:01:22;;;;;;;0.40;0.40;;;;;;;;;;5093061;28;20181;-76
2023/06/06 00:03:51;;;;;;;2.08;0.60;;;17.10;74.00;;;;;;5080022;28;20205;-76
2023/06/06 00:06:20;;;;;;;1.20;0.70;;;17.10;74.50;;;;;;5095441;28;20269;-75
2023/06/06 00:08:52;;;;;;;0.40;0.40;;;17.00;74.20;;;;;;5082677;28;20210;-76
2023/06/06 00:11:19;;;;;;;0.38;0.38;;;16.90;73.90;;;;;;5085842;28;20213;-76
2023/06/06 00:13:44;;;;;;;0.93;0.60;;;16.90;73.90;;;;;;5097624;28;20243;-76
2023/06/06 00:16:13;;;;;;;0.95;0.50;;;16.90;73.40;;;;;;5074405;28;20178;-76
2023/06/06 00:18:39;;;;;;;0.50;0.50;;;16.80;73.30;;;;;;5071488;28;20194;-76
2023/06/06 00:21:05;;;;;;;2.03;0.47;;;16.80;73.20;;;;;;5087545;28;20175;-76
2023/06/06 00:23:30;;;;;;;0.55;0.55;;;16.80;72.40;;;;;;5090143;28;20205;-76
2023/06/06 00:25:56;;;;;;;0.50;0.50;;;16.80;72.80;;;;;;5095626;28;20181;-76
2023/06/06 00:28:22;;;;;;;1.27;0.45;;;16.80;71.70;;;;;;5070256;28;20602;-76
2023/06/06 00:30:48;;;;;;;0.50;0.50;;;16.80;69.90;;;;;;5078841;28;20240;-75
2023/06/06 00:33:13;;;;;;;0.45;0.45;;;16.80;69.50;;;;;;5094622;28;20179;-76
2023/06/06 00:35:39;;;;;;;0.65;0.50;;;16.80;69.60;;;;;;5090545;28;20618;-76
2023/06/06 00:38:04;;;;;;;0.47;0.47;;;16.80;69.90;;;;;;5090391;28;20174;-76
2023/06/06 00:40:30;;;;;;;0.73;0.50;;;16.80;69.40;;;;;;5085030;28;20197;-76
2023/06/06 00:42:56;;;;;;;1.73;0.77;;;16.70;70.40;;;;;;5096573;28;20177;-76
2023/06/06 00:45:22;;;;;;;1.55;0.40;;;16.70;69.50;;;;;;5080480;28;20206;-76
2023/06/06 00:47:48;;;;;;;0.47;0.47;;;16.70;69.40;;;;;;5093725;28;20179;-76
2023/06/06 00:50:14;;;;;;;0.43;0.43;;;16.60;69.10;;;;;;5092712;28;20278;-76
2023/06/06 00:52:45;;;;;;;0.98;0.38;;;16.60;68.70;;;;;;5094962;28;20604;-76
2023/06/06 00:55:11;;;;;;;0.40;0.40;;;16.60;67.70;;;;;;5073276;28;20236;-76
2023/06/06 00:57:37;;;;;;;0.25;0.25;;;16.60;67.40;;;;;;5079918;28;20415;-76
2023/06/06 01:00:07;;;;;;;0.82;0.50;;;16.60;67.70;;;;;;5094122;28;20178;-75
2023/06/06 01:02:37;;;;;;;1.83;0.40;;;16.60;67.40;;;;;;5074963;28;20255;-75
2023/06/06 01:05:09;;;;;;;0.98;0.50;;;16.60;68.10;;;;;;5090947;28;20174;-77
2023/06/06 01:07:36;;;;;;;0.77;0.43;;;16.60;67.40;;;;;;5073799;28;20209;-74
2023/06/06 01:10:07;;;;;;;0.43;0.43;;;16.60;67.70;;;;;;5101010;28;20225;-75
2023/06/06 01:12:55;;;;;;;1.00;0.40;;;16.50;67.30;;;;;;5092562;28;20622;-75
2023/06/06 01:15:31;;;;;;;0.45;0.45;;;16.50;66.80;;;;;;5095155;28;20190;-76
2023/06/06 01:18:01;;;;;;;0.30;0.30;;;16.50;67.30;;;;;;5091799;28;20193;-75
2023/06/06 01:20:28;;;;;;;0.40;0.40;;;16.40;67.30;;;;;;5081325;28;20182;-75
2023/06/06 01:22:54;;;;;;;0.38;0.38;;;16.40;67.00;;;;;;5096277;28;20678;-75
2023/06/06 01:25:23;;;;;;;1.63;0.43;;;16.40;67.10;;;;;;5074926;28;20213;-75
2023/06/06 01:27:53;;;;;;;0.30;0.30;;;16.40;67.20;;;;;;5083255;28;20174;-75
2023/06/06 01:30:21;;;;;;;1.15;0.40;;;16.40;67.90;;;;;;5073989;28;20202;-77
2023/06/06 01:33:08;;;;;;;0.40;0.40;;;16.40;67.70;;;;;;5093312;28;20171;-75
2023/06/06 01:35:45;;;;;;;0.45;0.30;;;16.30;67.70;;;;;;5091820;28;20232;-75
2023/06/06 01:38:23;;;;;;;0.30;0.30;;;16.30;68.40;;;;;;5074300;28;20178;-76
2023/06/06 01:40:52;;;;;;;2.28;0.50;;;16.30;68.40;;;;;;5103022;28;20186;-75
2023/06/06 01:43:21;;;;;;;2.92;0.40;;;16.20;68.80;;;;;;5094299;28;20190;-75
2023/06/06 01:45:49;;;;;;;0.50;0.50;;;16.20;69.00;;;;;;5095687;28;20187;-75
2023/06/06 01:48:15;;;;;;;0.40;0.40;;;16.20;68.90;;;;;;5096930;28;20197;-75
2023/06/06 01:50:41;;;;;;;0.80;0.40;;;16.20;68.90;;;;;;5093407;28;20702;-75
2023/06/06 01:53:07;;;;;;;0.95;0.40;;;16.10;69.10;;;;;;5090845;28;20189;-75
2023/06/06 01:55:36;;;;;;;0.50;0.50;;;16.10;69.30;;;;;;5090612;28;20614;-75
2023/06/06 01:58:03;;;;;;;0.40;0.40;;;16.10;69.30;;;;;;5091342;28;20173;-75
2023/06/06 02:00:29;;;;;;;0.88;0.30;;;16.10;69.50;;;;;;5075511;28;20182;-76
2023/06/06 02:02:55;;;;;;;0.88;0.50;;;16.10;69.60;;;;;;5098552;28;20823;-77
2023/06/06 02:05:20;;;;;;;0.50;0.50;;;16.10;69.90;;;;;;5074130;28;20244;-75
2023/06/06 02:07:49;;;;;;;0.40;0.40;;;16.10;69.70;;;;;;5092445;28;20182;-75
2023/06/06 02:10:15;;;;;;;2.22;0.40;;;16.10;70.20;;;;;;5079487;28;20218;-75
2023/06/06 02:12:41;;;;;;;1.85;0.40;;;16.10;71.10;;;;;;5093505;28;20183;-76
2023/06/06 02:15:07;;;;;;;0.50;0.50;;;16.10;70.80;;;;;;5093945;28;20258;-75
2023/06/06 02:17:52;;;;;;;0.60;0.60;;;16.20;70.40;;;;;;5092206;28;20667;-75
2023/06/06 02:20:18;;;;;;;1.13;1.00;;;16.20;70.50;;;;;;5087883;28;20186;-76
2023/06/06 02:22:44;;;;;;;1.30;0.90;;;16.20;70.70;;;;;;5090149;28;20190;-76
2023/06/06 02:25:12;;;;;;;3.22;1.05;;;16.20;70.60;;;;;;5096502;28;20174;-75
2023/06/06 02:27:38;;;;;;;1.05;0.77;;;16.20;70.60;;;;;;5108604;27;20192;-76
2023/06/06 02:30:08;;;;;;;0.73;0.70;;;16.20;70.90;;;;;;5070817;28;20233;-76
2023/06/06 02:32:34;;;;;;;0.63;0.63;;;16.20;71.10;;;;;;5095002;28;20170;-76
2023/06/06 02:35:01;;;;;;;0.40;0.40;;;16.20;71.20;;;;;;5089054;28;20190;-76
2023/06/06 02:37:26;;;;;;;0.55;0.50;;;16.20;71.10;;;;;;5076827;28;20182;-76
2023/06/06 02:39:53;;;;;;;0.60;0.50;;;16.20;71.20;;;;;;5096682;28;20239;-76
2023/06/06 02:42:19;;;;;;;0.52;0.30;;;16.20;71.50;;;;;;5094945;28;20188;-75
2023/06/06 02:44:45;;;;;;;0.95;0.50;;;16.20;71.50;;;;;;5073163;28;20189;-76
2023/06/06 02:47:11;;;;;;;2.95;0.40;;;16.20;71.60;;;;;;5093694;28;20184;-76
2023/06/06 02:49:36;;;;;;;0.30;0.30;;;16.10;71.90;;;;;;5082916;28;20174;-77
2023/06/06 02:52:02;;;;;;;1.33;0.55;;;16.10;72.30;;;;;;5093726;28;20173;-77
2023/06/06 02:54:28;;;;;;;0.40;0.40;;;16.00;72.80;;;;;;5088565;28;20240;-74
2023/06/06 02:56:53;;;;;;;0.30;0.30;;;15.80;73.20;;;;;;5073417;28;20265;-76
2023/06/06 02:59:19;;;;;;;1.10;0.50;;;15.80;73.10;;;;;;5091348;28;20178;-76
2023/06/06 03:01:44;;;;;;;0.50;0.40;;;15.70;73.20;;;;;;5091505;28;20258;-76
2023/06/06 03:04:11;;;;;;;0.40;0.40;;;15.70;73.10;;;;;;5090184;28;20175;-76
2023/06/06 03:06:40;;;;;;;0.47;0.47;;;15.70;73.70;;;;;;5089316;28;20189;-75
2023/06/06 03:09:07;;;;;;;0.30;0.30;;;15.60;74.00;;;;;;5089479;28;20670;-74
2023/06/06 03:11:34;;;;;;;0.43;0.30;;;15.50;74.10;;;;;;5093579;28;20305;-75
2023/06/06 03:14:00;;;;;;;0.70;0.70;;;15.40;74.80;;;;;;5092948;28;20182;-75
2023/06/06 03:16:26;;;;;;;0.68;0.52;;;15.40;74.60;;;;;;5098704;28;20260;-76
2023/06/06 03:18:55;;;;;;;0.47;0.47;;;15.40;74.70;;;;;;5094163;28;20175;-75
2023/06/06 03:21:21;;;;;;;3.10;0.75;;;15.40;74.90;;;;;;5089401;28;20183;-76
2023/06/06 03:23:47;;;;;;;0.43;0.43;;;15.40;75.10;;;;;;5074021;28;20564;-76
2023/06/06 03:26:13;;;;;;;1.30;0.50;;;15.30;75.60;;;;;;5093969;28;20718;-75
2023/06/06 03:28:39;;;;;;;2.05;0.50;;;15.30;75.80;;;;;;5093070;28;20560;-74
2023/06/06 03:31:07;;;;;;;0.40;0.40;;;15.30;76.00;;;;;;5091570;28;20206;-75
2023/06/06 03:33:35;;;;;;;0.50;0.50;;;15.20;76.20;;;;;;5065011;28;20235;-75
2023/06/06 03:36:01;;;;;;;0.68;0.68;;;15.20;76.60;;;;;;5070580;28;20181;-76
2023/06/06 03:38:27;;;;;;;0.52;0.52;;;15.20;76.70;;;;;;5089696;28;20250;-76
2023/06/06 03:40:53;;;;;;;2.13;0.50;;;15.20;76.80;;;;;;5093138;28;20281;-75
2023/06/06 03:43:19;;;;;;;2.25;0.32;;;15.20;76.90;;;;;;5089699;28;20690;-76
2023/06/06 03:45:45;;;;;;;2.58;0.60;;;15.10;77.10;;;;;;5092779;28;20213;-76
2023/06/06 03:48:10;;;;;;;6.20;0.50;;;15.10;77.00;;;;;;5095960;28;20178;-76
2023/06/06 03:50:36;;;;;;;0.40;0.40;;;15.10;76.90;;;;;;5089779;28;20249;-76
2023/06/06 03:53:02;;;;;;;0.55;0.50;;;15.10;77.00;;;;;;5093079;28;20643;-76
2023/06/06 03:55:34;;;;;;;0.30;0.30;;;15.10;77.20;;;;;;5070370;28;20181;-76
2023/06/06 03:58:00;;;;;;;0.77;0.60;;;15.20;77.60;;;;;;5089394;28;20178;-75
2023/06/06 04:00:26;;;;;;;1.40;0.32;;;15.20;77.50;;;;;;5086374;28;20272;-76
2023/06/06 04:02:53;;;;;;;0.50;0.50;;;15.30;77.70;;;;;;5097782;28;20270;-76
2023/06/06 04:05:19;;;;;;;1.88;0.35;;;15.30;77.80;;;;;;5090829;28;20581;-74
2023/06/06 04:07:45;;;;;;;0.50;0.50;;;15.40;78.20;;;;;;5083514;28;20245;-75
2023/06/06 04:10:11;;;;;;;0.40;0.40;;;15.50;77.90;;;;;;5093464;28;20818;-75
2023/06/06 04:12:38;;;;;;;4.32;0.40;;;15.60;77.60;;;;;;5092500;28;20647;-75
2023/06/06 04:15:04;;;;;;;0.40;0.40;;;15.70;77.30;;;;;;5082943;28;20188;-75
2023/06/06 04:17:30;;;;;;;0.52;0.40;;;15.80;77.30;;;;;;5091459;28;20186;-75
2023/06/06 04:19:55;;;;;;;0.52;0.52;;;15.90;77.00;;;;;;5094524;28;20178;-75
2023/06/06 04:22:25;;;;;;;0.40;0.40;;;16.00;76.80;;;;;;5088889;28;20686;-75
2023/06/06 04:24:51;;;;;;;0.85;0.47;;;16.10;76.60;;;;;;5092308;28;20682;-77
2023/06/06 04:27:18;;;;;;;1.67;0.50;;;16.20;76.70;;;;;;5096443;28;20182;-76
2023/06/06 04:29:44;;;;;;;0.50;0.50;;;16.20;76.40;;;;;;5073968;28;20289;-76
2023/06/06 04:32:13;;;;;;;0.70;0.70;;;16.30;76.20;;;;;;5076380;28;20682;-76
2023/06/06 04:34:45;;;;;;;1.52;0.45;;;16.40;76.00;;;;;;5079181;28;20758;-75
2023/06/06 04:37:13;;;;;;;1.40;0.50;;;16.50;75.80;;;;;;5075633;28;20269;-76
2023/06/06 04:39:39;;;;;;;0.63;0.55;;;16.50;75.80;;;;;;5076820;28;20221;-76
2023/06/06 04:42:06;;;;;;;0.55;0.55;;;16.50;75.50;;;;;;5079254;28;20177;-75
2023/06/06 04:44:33;;;;;;;0.80;0.80;;;16.60;75.50;;;;;;5086598;28;20182;-76
2023/06/06 04:47:03;;;;;;;1.00;0.88;;;16.60;75.60;;;;;;5078333;28;20671;-76
2023/06/06 04:49:35;;;;;;;0.50;0.50;;;16.70;75.60;;;;;;5074364;28;20181;-75
2023/06/06 04:52:05;;;;;;;0.65;0.65;;;16.70;75.50;;;;;;5076453;28;20663;-75
2023/06/06 04:54:31;;;;;;;0.60;0.60;;;16.80;75.00;;;;;;5093124;28;20179;-75
2023/06/06 04:56:58;;;;;;;0.77;0.77;;;16.90;75.10;;;;;;5103659;28;20238;-75
2023/06/06 04:59:24;;;;;;;0.50;0.50;;;16.90;75.20;;;;;;5077715;28;20217;-75
2023/06/06 05:01:51;;;;;;;0.93;0.60;;;17.00;75.30;;;;;;5096768;28;20209;-75
2023/06/06 05:04:17;;;;;;;0.60;0.60;;;17.10;75.00;;;;;;5073572;28;20599;-75
2023/06/06 05:06:43;;;;;;;1.48;0.50;;;17.10;74.70;;;;;;5100214;28;20182;-75
2023/06/06 05:09:09;;;;;;;0.45;0.45;;;17.10;74.70;;;;;;5097673;28;20209;-75
2023/06/06 05:11:35;;;;;;;0.50;0.50;;;17.20;74.70;;;;;;5098544;28;20730;-75
2023/06/06 05:14:01;;;;;;;0.55;0.55;;;17.30;74.60;;;;;;5089279;28;20652;-74
2023/06/06 05:16:27;;;;;;;0.43;0.38;;;17.30;74.40;;;;;;5095451;28;20813;-74
2023/06/06 05:18:53;;;;;;;0.95;0.57;;;17.30;74.70;;;;;;5086549;28;20185;-74
2023/06/06 05:21:19;;;;;;;0.95;0.50;;;17.30;74.50;;;;;;5090672;28;20190;-75
2023/06/06 05:23:45;;;;;;;0.60;0.60;;;17.30;74.30;;;;;;5088908;28;20534;-74
2023/06/06 05:26:11;;;;;;;0.35;0.35;;;17.30;74.40;;;;;;5088898;28;20181;-74
2023/06/06 05:28:38;;;;;;;2.17;1.08;;;17.30;74.40;;;;;;5094052;28;20917;-76
2023/06/06 05:31:07;;;;;;;1.25;0.75;;;17.30;74.30;;;;;;5093382;28;20609;-75
2023/06/06 05:33:33;;;;;;;2.38;0.45;;;17.30;74.50;;;;;;5066614;28;20204;-76
2023/06/06 05:36:00;;;;;;;0.50;0.50;;;17.30;74.80;;;;;;5089114;28;20170;-76
2023/06/06 05:38:26;;;;;;;0.50;0.50;;;17.40;75.00;;;;;;5072837;28;20607;-76
2023/06/06 05:40:52;;;;;;;0.57;0.50;;;17.40;75.00;;;;;;5090190;28;20178;-76
2023/06/06 05:43:17;;;;;;;0.52;0.52;;;17.50;74.80;;;;;;5091785;28;20632;-75
2023/06/06 05:45:43;;;;;;;0.60;0.60;;;17.60;74.10;;;;;;5092105;28;20251;-76
2023/06/06 05:48:09;;;;;;;0.63;0.60;;;17.60;74.10;;;;;;5073271;28;20255;-75
2023/06/06 05:50:35;;;;;;;0.50;0.50;;;17.70;74.10;;;;;;5091669;28;20216;-73
2023/06/06 05:53:02;;;;;;;0.63;0.40;;;17.70;73.10;;;;;;5094544;28;20647;-74
2023/06/06 05:55:33;;;;;;;1.23;0.80;;;17.80;73.00;;;;;;5078614;28;20174;-74
2023/06/06 05:58:00;;;;;;;0.55;0.55;;;17.80;73.00;;;;;;5091771;28;20253;-74
2023/06/06 06:00:28;;;;;;;0.70;0.70;;;17.90;73.30;;;;;;5097221;28;20223;-76
2023/06/06 06:02:56;;;;;;;1.75;0.50;;;17.90;73.30;;;;;;5092124;28;20170;-75
2023/06/06 06:05:28;;;;;;;1.17;0.50;;;17.90;73.50;;;;;;5078206;28;20178;-75
2023/06/06 06:08:01;;;;;;;1.95;0.38;;;18.00;73.50;;;;;;5096020;28;20183;-75
2023/06/06 06:10:36;;;;;;;0.50;0.50;;;18.00;73.50;;;;;;5091532;28;20301;-75
2023/06/06 06:13:03;;;;;;;1.75;0.70;;;18.00;73.50;;;;;;5096727;28;20178;-76
2023/06/06 06:15:34;;;;;;;5.32;0.77;;;18.10;73.90;;;;;;5091083;28;20174;-76
2023/06/06 06:18:00;;;;;;;1.35;0.50;;;18.10;73.40;;;;;;5075488;28;20185;-76
2023/06/06 06:20:26;;;;;;;2.92;0.50;;;18.10;73.20;;;;;;5093568;28;20170;-75
2023/06/06 06:22:52;;;;;;;0.50;0.50;;;18.20;73.70;;;;;;5094447;28;20188;-76
2023/06/06 06:25:18;;;;;;;0.40;0.40;;;18.30;73.40;;;;;;5094250;28;20253;-76
2023/06/06 06:27:45;;;;;;;0.50;0.50;;;18.30;73.20;;;;;;5093269;28;20201;-75
2023/06/06 06:30:12;;;;;;;0.40;0.40;;;18.40;72.90;;;;;;5073051;28;20604;-75
2023/06/06 06:32:39;;;;;;;2.13;0.45;;;18.50;73.30;;;;;;5073679;28;20172;-76
2023/06/06 06:35:05;;;;;;;3.60;0.70;;;18.60;72.90;;;;;;5090669;28;20182;-76
2023/06/06 06:37:33;;;;;;;0.50;0.50;;;18.60;70.90;;;;;;5093835;28;20198;-76
2023/06/06 06:39:59;;;;;;;0.50;0.50;;;18.70;71.00;;;;;;5062636;28;20181;-76
2023/06/06 06:42:26;;;;;;;0.40;0.40;;;18.80;71.40;;;;;;5086667;28;20739;-75
2023/06/06 06:44:52;;;;;;;0.57;0.57;;;18.80;72.20;;;;;;5094813;28;20679;-76
2023/06/06 06:47:19;;;;;;;0.52;0.52;;;18.80;72.20;;;;;;5081493;28;20182;-74
2023/06/06 06:49:45;;;;;;;4.32;0.70;;;18.90;72.10;;;;;;5086051;28;20186;-78
2023/06/06 06:52:11;;;;;;;0.80;0.40;;;19.00;70.80;;;;;;5081890;28;20209;-79
2023/06/06 06:54:54;;;;;;;1.73;0.60;;;19.00;71.30;;;;;;5075375;28;20186;-79
2023/06/06 06:57:21;;;;;;;2.35;0.50;;;19.10;71.40;;;;;;5074839;28;20190;-79
2023/06/06 06:59:48;;;;;;;0.50;0.50;;;19.30;72.10;;;;;;5068177;28;20186;-80
2023/06/06 07:02:14;;;;;;;1.75;0.45;;;19.30;71.80;;;;;;5068344;28;20195;-81
2023/06/06 07:04:40;;;;;;;0.85;0.50;;;19.40;71.90;;;;;;5072920;28;20785;-80
2023/06/06 07:07:06;;;;;;;5.20;0.40;;;19.50;70.90;;;;;;5088347;28;20185;-81
2023/06/06 07:09:32;;;;;;;0.50;0.50;;;19.60;70.20;;;;;;5073938;28;20632;-80
2023/06/06 07:11:58;;;;;;;0.65;0.65;;;19.70;69.90;;;;;;5084840;28;20210;-80
2023/06/06 07:14:28;;;;;;;4.72;0.60;;;19.80;70.10;;;;;;5087900;28;20741;-78
2023/06/06 07:16:54;;;;;;;0.38;0.38;;;19.90;69.60;;;;;;5090734;28;20239;-81
2023/06/06 07:19:20;;;;;;;0.60;0.60;;;20.10;68.80;;;;;;5072429;28;20217;-79
2023/06/06 07:21:47;;;;;;;0.40;0.40;;;20.20;68.90;;;;;;5068690;28;20190;-78
2023/06/06 07:24:12;;;;;;;1.33;0.40;;;20.30;68.80;;;;;;5090437;28;20183;-79
2023/06/06 07:26:38;;;;;;;0.60;0.60;;;20.50;69.60;;;;;;5088821;28;20177;-80
2023/06/06 07:29:04;;;;;;;0.65;0.65;;;20.60;68.20;;;;;;5085174;28;20181;-79
2023/06/06 07:31:33;;;;;;;0.52;0.52;;;20.60;68.40;;;;;;5088071;28;20346;-80
2023/06/06 07:33:59;;;;;;;0.60;0.60;;;20.70;67.70;;;;;;5070325;28;20571;-78
2023/06/06 07:36:25;;;;;;;1.67;0.90;;;20.70;67.30;;;;;;5070195;28;20178;-79
2023/06/06 07:38:53;;;;;;;0.60;0.60;;;20.80;68.10;;;;;;5088657;28;20178;-81
2023/06/06 07:41:20;;;;;;;1.27;0.60;;;20.70;67.00;;;;;;5067504;28;22641;-81
2023/06/06 07:43:46;;;;;;;0.80;0.80;;;20.70;66.30;;;;;;5066495;28;20261;-79
2023/06/06 07:46:11;;;;;;;0.55;0.55;;;20.80;67.70;;;;;;5087270;28;20323;-79
2023/06/06 07:48:37;;;;;;;0.50;0.50;;;20.80;68.80;;;;;;5091458;28;20639;-79
2023/06/06 07:51:03;;;;;;;1.00;0.55;;;20.90;68.40;;;;;;5089172;28;20213;-79
2023/06/06 07:53:29;;;;;;;2.15;0.50;;;21.00;67.70;;;;;;5088857;28;20190;-79
2023/06/06 07:55:55;;;;;;;0.52;0.52;;;21.10;68.10;;;;;;5087422;28;20189;-78
2023/06/06 07:58:25;;;;;;;1.60;0.75;;;21.20;67.40;;;;;;5071199;28;20193;-79
2023/06/06 08:00:51;;;;;;;0.80;0.80;;;21.20;65.40;;;;;;5100516;28;20242;-80
2023/06/06 08:03:17;;;;;;;1.73;0.60;;;21.20;68.00;;;;;;5092887;28;20243;-80
2023/06/06 08:05:43;;;;;;;1.15;0.73;;;21.20;67.80;;;;;;5091453;28;20181;-79
2023/06/06 08:08:08;;;;;;;0.60;0.60;;;21.30;67.90;;;;;;5091720;28;20684;-83
2023/06/06 08:10:34;;;;;;;1.52;0.70;;;21.30;67.10;;;;;;5077488;28;20222;-82
2023/06/06 08:13:00;;;;;;;0.85;0.70;;;21.30;67.50;;;;;;5077580;28;20216;-83
2023/06/06 08:15:27;;;;;;;2.15;0.70;;;21.40;68.40;;;;;;5092671;28;20211;-82
2023/06/06 08:17:53;;;;;;;1.65;0.90;;;21.40;67.10;;;;;;5072566;28;20178;-82
2023/06/06 08:20:19;;;;;;;1.30;0.70;;;21.50;67.50;;;;;;5093781;28;20173;-82
2023/06/06 08:22:51;;;;;;;1.02;0.68;;;21.50;68.30;;;;;;5076818;28;20654;-80
2023/06/06 08:25:17;;;;;;;0.82;0.73;;;21.60;68.60;;;;;;5091257;28;20575;-80
2023/06/06 08:27:42;;;;;;;0.50;0.50;;;21.60;68.30;;;;;;5074305;28;20184;-82
2023/06/06 08:30:09;;;;;;;0.60;0.60;;;21.70;68.90;;;;;;5071677;28;20301;-81
2023/06/06 08:32:35;;;;;;;0.70;0.70;;;21.70;68.80;;;;;;5093176;28;20186;-81
2023/06/06 08:35:05;;;;;;;0.75;0.75;;;21.80;68.00;;;;;;5094228;28;20182;-81
2023/06/06 08:37:31;;;;;;;1.00;1.00;;;21.80;67.90;;;;;;5074368;28;20308;-81
2023/06/06 08:39:57;;;;;;;1.77;1.08;;;21.80;67.60;;;;;;5094517;28;20182;-81
2023/06/06 08:42:24;;;;;;;1.33;0.90;;;21.90;68.30;;;;;;5073656;28;20217;-80
2023/06/06 08:44:52;;;;;;;0.70;0.70;;;21.90;68.60;;;;;;5092899;28;20174;-80
2023/06/06 08:47:23;;;;;;;0.57;0.57;;;21.90;66.40;;;;;;5100259;28;20171;-80
2023/06/06 08:49:50;;;;;;;1.25;0.73;;;22.00;66.90;;;;;;5071501;28;20179;-83
2023/06/06 08:52:16;;;;;;;0.93;0.93;;;22.00;67.90;;;;;;5093442;28;20271;-82
2023/06/06 08:54:42;;;;;;;0.80;0.80;;;22.00;67.50;;;;;;5079196;28;20276;-82
2023/06/06 08:57:08;;;;;;;1.25;0.80;;;22.10;67.80;;;;;;5085591;28;20198;-83
2023/06/06 08:59:38;;;;;;;1.10;0.77;;;22.10;67.00;;;;;;5072810;28;20209;-82
2023/06/06 09:02:08;;;;;;;0.60;0.60;;;22.20;67.90;;;;;;5092956;28;20183;-82
2023/06/06 09:04:34;;;;;;;0.85;0.68;;;22.20;68.30;;;;;;5091630;28;20295;-82
2023/06/06 09:07:08;;;;;;;0.85;0.75;;;22.20;68.90;;;;;;5092360;28;20194;-84
2023/06/06 09:09:37;;;;;;;1.88;1.02;;;22.40;68.30;;;;;;5072170;28;20186;-83
2023/06/06 09:12:02;;;;;;;2.15;0.90;;;22.40;68.30;;;;;;5087947;28;20202;-82
2023/06/06 09:14:28;;;;;;;7.13;1.30;;;22.50;68.20;;;;;;5075984;28;20191;-83
2023/06/06 09:16:54;;;;;;;0.82;0.80;;;22.60;67.80;;;;;;5099459;28;20706;-84
2023/06/06 09:19:25;;;;;;;1.85;1.10;;;22.60;67.40;;;;;;5091786;28;20189;-83
2023/06/06 09:21:51;;;;;;;0.98;0.88;;;22.80;69.30;;;;;;5079205;28;20263;-84
2023/06/06 09:24:17;;;;;;;1.02;0.80;;;22.80;69.10;;;;;;5090238;28;20178;-84
2023/06/06 09:26:43;;;;;;;0.90;0.90;;;23.00;68.50;;;;;;5091767;28;20181;-83
2023/06/06 09:29:11;;;;;;;1.00;1.00;;;23.10;68.50;;;;;;5084751;28;20185;-83
2023/06/06 09:31:38;;;;;;;1.02;0.98;;;23.20;67.40;;;;;;5076875;28;20237;-82
2023/06/06 09:34:04;;;;;;;1.40;1.10;;;23.30;67.10;;;;;;5073699;28;20173;-82
2023/06/06 09:36:31;;;;;;;2.17;1.05;;;23.30;66.60;;;;;;5092356;28;20179;-84
2023/06/06 09:39:09;;;;;;;2.05;0.90;;;23.30;67.00;;;;;;5084508;28;20185;-83
2023/06/06 09:41:48;;;;;;;2.33;0.93;;;23.30;66.90;;;;;;5088665;28;20185;-84
2023/06/06 09:44:25;;;;;;;1.23;1.00;;;23.50;68.80;;;;;;5066101;28;20201;-83
2023/06/06 09:47:01;;;;;;;0.80;0.80;;;23.60;69.10;;;;;;5089187;28;20314;-82
2023/06/06 09:49:34;;;;;;;0.98;0.98;;;23.80;68.00;;;;;;5099744;28;20262;-85
2023/06/06 09:52:00;;;;;;;1.52;0.80;;;24.00;66.40;;;;;;5091268;28;20218;-83
2023/06/06 09:54:26;;;;;;;0.93;0.90;;;24.20;67.50;;;;;;5067711;28;20193;-83
2023/06/06 09:56:54;;;;;;;1.80;0.90;;;24.40;67.80;;;;;;5076822;28;20278;-83
2023/06/06 09:59:24;;;;;;;1.58;0.95;;;24.70;66.70;;;;;;5075823;28;20181;-82
2023/06/06 10:01:55;;;;;;;1.48;0.90;;;25.00;65.20;;;;;;5077568;28;20189;-83
2023/06/06 10:04:21;;;;;;;2.15;1.10;;;25.20;63.20;;;;;;5086046;28;20178;-82
2023/06/06 10:06:47;;;;;;;1.25;1.15;;;25.20;65.20;;;;;;5072775;28;21504;-82
2023/06/06 10:09:15;;;;;;;1.05;1.02;;;25.30;65.50;;;;;;5088996;28;20185;-82
2023/06/06 10:11:41;;;;;;;1.00;1.00;;;25.50;64.80;;;;;;5074341;28;20202;-82
2023/06/06 10:14:08;;;;;;;1.08;1.08;;;25.60;65.80;;;;;;5071787;28;20185;-83
2023/06/06 10:16:37;;;;;;;1.15;1.15;;;25.80;64.20;;;;;;5073939;28;20270;-82
2023/06/06 10:19:03;;;;;;;1.10;0.85;;;26.10;63.80;;;;;;5094150;28;20250;-82
2023/06/06 10:21:31;;;;;;;1.23;1.05;;;26.30;62.70;;;;;;5089643;28;20175;-81
2023/06/06 10:23:56;;;;;;;1.00;1.00;;;26.60;62.90;;;;;;5072524;28;20859;-81
2023/06/06 10:26:45;;;;;;;1.05;1.05;;;27.00;61.80;;;;;;5074262;28;20171;-82
2023/06/06 10:29:19;;;;;;;0.90;0.90;;;27.40;61.00;;;;;;5087921;28;20186;-81
2023/06/06 10:31:57;;;;;;;0.90;0.90;;;27.90;59.20;;;;;;5089415;28;20214;-81
2023/06/06 10:34:27;;;;;;;1.38;1.38;;;28.30;58.20;;;;;;5090148;28;20178;-81
2023/06/06 10:36:54;;;;;;;0.90;0.90;;;28.70;59.20;;;;;;5073981;28;20206;-83
2023/06/06 10:39:25;;;;;;;2.47;1.00;;;29.20;57.70;;;;;;5072466;28;20602;-82
2023/06/06 10:41:55;;;;;;;1.13;1.02;;;29.70;57.20;;;;;;5090571;28;20693;-82
2023/06/06 10:44:41;;;;;;;1.38;1.25;;;30.20;56.30;;;;;;5072325;28;20624;-80
2023/06/06 10:47:27;;;;;;;1.38;1.27;;;30.80;56.00;;;;;;5074516;28;20188;-80
2023/06/06 10:50:09;;;;;;;1.10;1.10;;;31.30;54.40;;;;;;5090185;28;20204;-81
2023/06/06 10:52:47;;;;;;;1.17;1.17;;;31.60;53.50;;;;;;5073416;28;20496;-82
2023/06/06 10:55:38;;;;;;;1.58;1.00;;;31.70;55.60;;;;;;5090243;28;20188;-80
2023/06/06 10:58:10;;;;;;;1.30;1.05;;;31.60;53.90;;;;;;5066395;28;20192;-80
2023/06/06 11:00:40;;;;;;;0.90;0.90;;;30.90;53.50;;;;;;5088650;28;20174;-82
2023/06/06 11:03:07;;;;;;;1.15;1.15;;;30.30;56.70;;;;;;5075842;28;20301;-80
2023/06/06 11:05:53;;;;;;;2.83;1.23;;;30.30;56.20;;;;;;5085991;28;20170;-81
2023/06/06 11:08:30;;;;;;;0.95;0.95;;;30.50;56.40;;;;;;5088969;28;20191;-81
2023/06/06 11:11:21;;;;;;;0.93;0.90;;;30.80;55.40;;;;;;5071835;28;20220;-82
2023/06/06 11:13:56;;;;;;;0.98;0.98;;;31.40;54.20;;;;;;5071831;28;20238;-82
2023/06/06 11:16:49;;;;;;;1.20;1.10;;;31.80;54.20;;;;;;5074920;28;20266;-83
2023/06/06 11:19:19;;;;;;;1.38;1.00;;;32.30;52.20;;;;;;5091268;28;20177;-82
2023/06/06 11:21:50;;;;;;;0.93;0.93;;;32.60;52.60;;;;;;5087354;28;20177;-80
2023/06/06 11:24:18;;;;;;;1.10;1.10;;;32.80;53.80;;;;;;5065553;28;20185;-82
2023/06/06 11:26:44;;;;;;;1.20;1.15;;;33.00;54.70;;;;;;5072174;28;20174;-80
2023/06/06 11:29:11;;;;;;;1.00;1.00;;;33.30;53.60;;;;;;5090380;28;20182;-81
2023/06/06 11:31:39;;;;;;;1.10;1.10;;;33.60;50.50;;;;;;5068677;28;20229;-81
2023/06/06 11:34:07;;;;;;;1.33;1.23;;;33.70;50.70;;;;;;5089412;28;20174;-80
2023/06/06 11:36:34;;;;;;;1.08;1.08;;;33.70;50.60;;;;;;5089788;28;20196;-81
2023/06/06 11:39:01;;;;;;;1.90;1.27;;;33.60;51.50;;;;;;5092358;28;20208;-82
2023/06/06 11:41:30;;;;;;;0.98;0.98;;;33.70;51.50;;;;;;5088015;28;20212;-82
2023/06/06 11:43:56;;;;;;;1.00;1.00;;;33.60;51.80;;;;;;5091881;28;20177;-82
2023/06/06 11:46:22;;;;;;;1.15;1.05;;;33.40;50.20;;;;;;5090324;28;20193;-81
2023/06/06 11:49:08;;;;;;;0.82;0.82;;;33.30;52.10;;;;;;5097409;28;20180;-82
2023/06/06 11:51:33;;;;;;;1.08;0.90;;;33.30;49.70;;;;;;5096598;28;20213;-80
2023/06/06 11:54:13;;;;;;;0.95;0.95;;;33.20;52.90;;;;;;5074261;28;20258;-82
2023/06/06 11:56:40;;;;;;;1.38;1.23;;;33.20;53.20;;;;;;5087824;28;20201;-82
2023/06/06 11:59:08;;;;;;;1.50;1.00;;;32.90;54.00;;;;;;5080792;28;20248;-81
2023/06/06 12:01:34;;;;;;;1.13;1.13;;;32.30;52.50;;;;;;5070261;28;20220;-81
2023/06/06 12:04:00;;;;;;;3.33;1.42;;;31.90;52.40;;;;;;5091117;28;20252;-80
2023/06/06 12:06:25;;;;;;;4.90;1.17;;;31.60;53.00;;;;;;5093506;28;20201;-81
2023/06/06 12:08:51;;;;;;;1.70;1.60;;;31.20;52.20;;;;;;5093764;28;20671;-81
2023/06/06 12:11:24;;;;;;;1.10;1.10;;;30.50;53.80;;;;;;5097470;28;20205;-81
2023/06/06 12:13:51;;;;;;;5.57;1.00;;;30.10;54.40;;;;;;5094217;28;20220;-81
2023/06/06 12:16:29;;;;;;;1.02;1.02;;;29.90;54.50;;;;;;5084352;28;20178;-81
2023/06/06 12:18:55;;;;;;;1.40;1.40;;;29.70;52.80;;;;;;5084679;28;20194;-82
2023/06/06 12:21:22;;;;;;;1.80;1.08;;;29.50;55.10;;;;;;5087818;28;20312;-80
2023/06/06 12:23:48;;;;;;;3.15;1.08;;;29.60;55.40;;;;;;5090353;28;20294;-82
2023/06/06 12:26:16;;;;;;;1.20;1.20;;;29.80;54.30;;;;;;5078787;28;20662;-81
2023/06/06 12:28:59;;;;;;;2.10;0.90;;;30.10;54.70;;;;;;5074291;28;20234;-81
2023/06/06 12:31:26;;;;;;;1.08;1.08;;;30.20;53.30;;;;;;5087577;28;20702;-82
2023/06/06 12:33:53;;;;;;;1.00;1.00;;;29.90;54.20;;;;;;5067743;28;20178;-81
2023/06/06 12:36:21;;;;;;;1.40;1.30;;;29.60;55.40;;;;;;5083726;28;20177;-81
2023/06/06 12:39:01;;;;;;;1.17;1.17;;;29.50;54.30;;;;;;5091886;28;20182;-81
2023/06/06 12:41:41;;;;;;;0.90;0.90;;;29.30;53.60;;;;;;5083111;28;20213;-82
2023/06/06 12:44:11;;;;;;;1.00;1.00;;;29.00;53.20;;;;;;5090791;28;20174;-80
2023/06/06 12:46:41;;;;;;;1.40;1.30;;;28.90;54.00;;;;;;5088587;28;20260;-80
2023/06/06 12:49:07;;;;;;;1.42;1.10;;;28.80;55.10;;;;;;5089331;28;20192;-80
2023/06/06 12:51:34;;;;;;;0.90;0.90;;;28.80;53.20;;;;;;5093146;28;20205;-79
2023/06/06 12:54:00;;;;;;;0.77;0.77;;;28.70;53.50;;;;;;5092120;28;20235;-81